KDHT/DHT METAR and TAF weather

Enter ICAO airport designator
Station Type Date Time Source
KDHT METAR 2018/10/22 16:53 UTC NOAA

KDHT 221653Z AUTO 08011KT 10SM CLR 21/01 A3015 RMK AO2 SLP177 T02060011


Station Type Date Time Source
KDHT Decoded METAR 2018/10/22 16:53 UTC NOAA

DALHART MUNICIPAL AIRPORT, TX, United States (KDHT) 36-01N 102-33W 1217M
Oct 22, 2018 - 12:53 PM EDT / 2018.10.22 1653 UTC
Wind: from the E (080 degrees) at 13 MPH (11 KT):0
Visibility: 10 mile(s):0
Sky conditions: clear
Temperature: 69.1 F (20.6 C)
Dew Point: 34.0 F (1.1 C)
Relative Humidity: 27%
Pressure (altimeter): 30.15 in. Hg (1020 hPa)
ob: KDHT 221653Z AUTO 08011KT 10SM CLR 21/01 A3015 RMK AO2 SLP177 T02060011
cycle: 17

Station Type Date Time Source
KDHT TAF 2018/10/22 18:24 UTC NOAA

TAF KDHT 221722Z 2218/2318 06009KT P6SM SCT250
FM230600 36008KT P6SM SCT100 SCT200
FM231400 04008KT P6SM VCSH SCT050 BKN150


Example: see airport list